Time;durP1;ratioP1;P1;durP2;ratioP2;P2;SDS_P1;SDS_P2;PMS_P1;PMS_P2;Temp;Humidity;BMP_temperature;BMP_pressure;BME280_temperature;BME280_humidity;BME280_pressure;Samples;Min_cycle;Max_cycle;Signal;HPM_P1;HPM_P2
2022/12/27 00:02:39;;;;;;;;;;;20.00;63.90;;;;;;6246590;28;20361;-51
2022/12/27 00:05:41;;;;;;;;;;;20.20;64.20;;;;;;6246551;28;20397;-53
2022/12/27 00:08:43;;;;;;;;;;;20.00;63.90;;;;;;6246588;28;19959;-53
2022/12/27 00:11:44;;;;;;;;;;;20.20;64.00;;;;;;6247204;28;19928;-53
2022/12/27 00:14:46;;;;;;;;;;;20.20;64.00;;;;;;6246322;28;19928;-52
2022/12/27 00:17:47;;;;;;;;;;;20.20;64.00;;;;;;6246828;28;19925;-53
2022/12/27 00:20:49;;;;;;;;;;;20.10;63.30;;;;;;6249198;28;19952;-54
2022/12/27 00:23:51;;;;;;;;;;;20.30;64.00;;;;;;6250843;28;19921;-50
2022/12/27 00:26:52;;;;;;;;;;;20.90;64.20;;;;;;6251029;28;19928;-52
2022/12/27 00:29:55;;;;;;;;;;;20.50;64.00;;;;;;6250670;28;19968;-52
2022/12/27 00:32:57;;;;;;;;;;;20.00;63.80;;;;;;6250516;28;19971;-54
2022/12/27 00:35:58;;;;;;;;;;;20.10;63.20;;;;;;6250989;28;19964;-54
2022/12/27 00:39:00;;;;;;;;;;;20.20;63.90;;;;;;6250611;28;19928;-52
2022/12/27 00:42:01;;;;;;;;;;;20.00;63.80;;;;;;6250629;28;19921;-51
2022/12/27 00:45:04;;;;;;;;;;;20.00;63.80;;;;;;6250721;28;19921;-53
2022/12/27 00:48:05;;;;;;;;;;;20.00;63.70;;;;;;6250378;28;20280;-53
2022/12/27 00:51:09;;;;;;;;;;;20.00;63.90;;;;;;6250457;28;19968;-53
2022/12/27 00:54:12;;;;;;;;;;;19.90;63.60;;;;;;6251664;28;19960;-53
2022/12/27 00:57:14;;;;;;;;;;;20.50;63.90;;;;;;6250292;28;20262;-54
2022/12/27 01:00:16;;;;;;;;;;;20.10;64.00;;;;;;6250273;28;20455;-49
2022/12/27 01:03:17;;;;;;;;;;;19.90;63.70;;;;;;6250288;28;19928;-54
2022/12/27 01:06:20;;;;;;;;;;;20.40;63.90;;;;;;6248438;28;19928;-55
2022/12/27 01:09:22;;;;;;;;;;;20.20;63.10;;;;;;6250010;28;19925;-54
2022/12/27 01:12:23;;;;;;;;;;;19.80;63.30;;;;;;6249713;28;20000;-54
2022/12/27 01:15:25;;;;;;;;;;;19.90;63.70;;;;;;6249976;28;19928;-52
2022/12/27 01:18:26;;;;;;;;;;;20.20;63.10;;;;;;6249486;28;19921;-52
2022/12/27 01:21:29;;;;;;;;;;;20.50;64.10;;;;;;6249329;28;19932;-52
2022/12/27 01:24:31;;;;;;;;;;;20.20;63.80;;;;;;6250035;28;19921;-53
2022/12/27 01:27:32;;;;;;;;;;;20.70;64.10;;;;;;6249340;28;20320;-52
2022/12/27 01:30:34;;;;;;;;;;;20.10;63.80;;;;;;6249193;28;20370;-54
2022/12/27 01:33:36;;;;;;;;;;;20.10;63.00;;;;;;6249539;28;19921;-52
2022/12/27 01:36:37;;;;;;;;;;;20.10;63.60;;;;;;6249456;28;20032;-53
2022/12/27 01:39:38;;;;;;;;;;;19.70;63.70;;;;;;6249299;28;19921;-55
2022/12/27 01:45:54;;;;;;;;;;;20.20;63.10;;;;;;6249245;28;19928;-51
2022/12/27 01:48:56;;;;;;;;;;;20.30;63.70;;;;;;6248919;28;19921;-52
2022/12/27 01:51:58;;;;;;;;;;;19.80;63.30;;;;;;6249548;28;19925;-51
2022/12/27 01:55:02;;;;;;;;;;;20.30;63.70;;;;;;6249322;28;19928;-54
2022/12/27 01:58:05;;;;;;;;;;;20.50;63.50;;;;;;6249183;28;20020;-53
2022/12/27 02:01:10;;;;;;;;;;;19.90;63.40;;;;;;6249513;28;20426;-53
2022/12/27 02:04:14;;;;;;;;;;;19.90;63.50;;;;;;6249737;28;19928;-53
2022/12/27 02:07:15;;;;;;;;;;;20.00;63.40;;;;;;6249181;28;19921;-53
2022/12/27 02:10:17;;;;;;;;;;;19.90;63.60;;;;;;6249725;28;19921;-52
2022/12/27 02:13:18;;;;;;;;;;;19.70;63.10;;;;;;6249015;28;20066;-53
2022/12/27 02:16:20;;;;;;;;;;;19.90;63.30;;;;;;6247737;28;19952;-54
2022/12/27 02:19:27;;;;;;;;;;;20.00;63.40;;;;;;6249279;28;20332;-52
2022/12/27 02:26:11;;;;;;;;;;;19.90;63.20;;;;;;6247898;28;19921;-53
2022/12/27 02:29:17;;;;;;;;;;;20.60;63.50;;;;;;6248354;28;19921;-52
2022/12/27 02:32:22;;;;;;;;;;;20.20;63.30;;;;;;6249158;28;20266;-52
2022/12/27 02:35:26;;;;;;;;;;;20.20;62.90;;;;;;6248893;28;20369;-51
2022/12/27 02:38:30;;;;;;;;;;;20.30;63.30;;;;;;6249114;28;20258;-49
2022/12/27 02:54:50;;;;;;;;;;;20.10;62.70;;;;;;6248063;28;19948;-53
2022/12/27 02:57:55;;;;;;;;;;;19.90;63.10;;;;;;6248619;28;20024;-54
2022/12/27 03:04:32;;;;;;;;;;;20.10;63.20;;;;;;6248242;28;19929;-53
2022/12/27 03:07:35;;;;;;;;;;;20.10;63.10;;;;;;6248780;28;19956;-53
2022/12/27 03:17:18;;;;;;;;;;;20.40;63.50;;;;;;6246597;28;20414;-53
2022/12/27 03:26:52;;;;;;;;;;;19.90;63.00;;;;;;6248076;28;19956;-53
2022/12/27 03:33:12;;;;;;;;;;;20.50;63.30;;;;;;6247828;28;19921;-53
2022/12/27 03:39:36;;;;;;;;;;;20.10;63.30;;;;;;6246687;28;19921;-54
2022/12/27 03:49:18;;;;;;;;;;;19.80;62.90;;;;;;6246313;28;19921;-53
2022/12/27 03:52:21;;;;;;;;;;;19.90;62.80;;;;;;6246466;28;19964;-51
2022/12/27 03:55:23;;;;;;;;;;;19.90;62.90;;;;;;6249562;28;19921;-50
2022/12/27 03:58:32;;;;;;;;;;;19.70;62.90;;;;;;6251820;28;19928;-53
2022/12/27 04:01:34;;;;;;;;;;;20.30;63.00;;;;;;6251566;28;19927;-54
2022/12/27 04:04:36;;;;;;;;;;;20.60;63.50;;;;;;6251808;28;20024;-53
2022/12/27 04:07:37;;;;;;;;;;;20.10;63.00;;;;;;6251629;28;20000;-54
2022/12/27 04:36:41;;;;;;;;;;;20.10;60.40;;;;;;6251359;28;19925;-52
2022/12/27 04:54:55;;;;;;;;;;;20.20;61.30;;;;;;6250965;28;19925;-51
2022/12/27 04:56:04;;;;;;;;;;;19.90;61.00;;;;;;6250834;28;19921;-52
2022/12/27 05:02:22;;;;;;;;;;;19.90;61.00;;;;;;6250573;28;19925;-53
2022/12/27 05:05:24;;;;;;;;;;;20.00;61.00;;;;;;6249944;28;19921;-51
2022/12/27 05:14:54;;;;;;;;;;;20.20;60.40;;;;;;6250224;28;19921;-54
2022/12/27 05:17:55;;;;;;;;;;;20.00;60.90;;;;;;6250424;28;19928;-50
2022/12/27 05:21:00;;;;;;;;;;;20.00;60.80;;;;;;6250537;28;20265;-52
2022/12/27 05:27:14;;;;;;;;;;;20.00;60.80;;;;;;6249940;28;19921;-51
2022/12/27 05:30:16;;;;;;;;;;;20.10;60.90;;;;;;6248765;28;19921;-52
2022/12/27 05:33:17;;;;;;;;;;;19.90;60.90;;;;;;6250071;28;20407;-49
2022/12/27 05:36:19;;;;;;;;;;;20.20;60.40;;;;;;6249786;28;19934;-53
2022/12/27 05:39:21;;;;;;;;;;;20.50;60.40;;;;;;6250100;28;19971;-53
2022/12/27 05:42:22;;;;;;;;;;;19.90;60.80;;;;;;6250025;28;20353;-51
2022/12/27 05:45:23;;;;;;;;;;;19.90;60.90;;;;;;6249610;28;19971;-52
2022/12/27 05:48:25;;;;;;;;;;;20.50;61.00;;;;;;6250005;28;19921;-51
2022/12/27 05:51:26;;;;;;;;;;;19.90;60.90;;;;;;6249489;28;19921;-51
2022/12/27 05:54:28;;;;;;;;;;;20.40;61.10;;;;;;6249360;28;19928;-53
2022/12/27 05:57:29;;;;;;;;;;;20.70;61.20;;;;;;6249722;28;19967;-52
2022/12/27 06:00:31;;;;;;;;;;;20.00;60.20;;;;;;6249587;28;19925;-52
2022/12/27 06:03:32;;;;;;;;;;;19.80;60.70;;;;;;6249192;28;20289;-53
2022/12/27 06:06:34;;;;;;;;;;;19.70;60.80;;;;;;6249579;28;20325;-51
2022/12/27 06:09:36;;;;;;;;;;;20.60;61.10;;;;;;6249224;28;19971;-51
2022/12/27 06:12:37;;;;;;;;;;;20.20;61.00;;;;;;6249129;28;19979;-52
2022/12/27 06:15:38;;;;;;;;;;;20.00;60.80;;;;;;6249331;28;19925;-52
2022/12/27 06:18:40;;;;;;;;;;;20.30;61.10;;;;;;6248685;28;19921;-53
2022/12/27 06:21:42;;;;;;;;;;;20.50;61.00;;;;;;6248272;28;19956;-52
2022/12/27 06:24:44;;;;;;;;;;;20.40;61.10;;;;;;6249237;28;19929;-52
2022/12/27 06:27:45;;;;;;;;;;;19.80;60.60;;;;;;6248890;28;19948;-53
2022/12/27 06:30:46;;;;;;;;;;;20.00;60.80;;;;;;6248755;28;19928;-51
2022/12/27 06:33:48;;;;;;;;;;;20.10;60.30;;;;;;6249611;28;19921;-51
2022/12/27 06:36:50;;;;;;;;;;;19.80;60.60;;;;;;6247324;28;19925;-52
2022/12/27 06:39:52;;;;;;;;;;;20.10;61.00;;;;;;6249383;28;19928;-47
2022/12/27 06:42:53;;;;;;;;;;;20.10;60.90;;;;;;6248920;28;19992;-54
2022/12/27 06:45:55;;;;;;;;;;;20.40;61.10;;;;;;6248436;28;19928;-51
2022/12/27 06:48:56;;;;;;;;;;;20.30;60.80;;;;;;6248027;28;20381;-52
2022/12/27 06:51:58;;;;;;;;;;;19.70;60.70;;;;;;6248699;28;19924;-52
2022/12/27 06:55:01;;;;;;;;;;;20.00;60.90;;;;;;6248288;28;19921;-51
2022/12/27 06:58:02;;;;;;;;;;;20.60;61.20;;;;;;6248975;28;19964;-53
2022/12/27 07:01:07;;;;;;;;;;;20.20;60.90;;;;;;6248764;28;19921;-50
2022/12/27 07:04:08;;;;;;;;;;;20.00;60.30;;;;;;6248128;28;19925;-51
2022/12/27 07:07:10;;;;;;;;;;;20.00;60.70;;;;;;6247996;28;20392;-52
2022/12/27 07:10:17;;;;;;;;;;;20.60;61.10;;;;;;6248348;28;19952;-51
2022/12/27 07:13:19;;;;;;;;;;;20.00;60.70;;;;;;6246406;28;20328;-52
2022/12/27 07:16:21;;;;;;;;;;;20.10;60.10;;;;;;6247573;28;20397;-51
2022/12/27 07:19:22;;;;;;;;;;;20.10;60.60;;;;;;6246872;28;20450;-51
2022/12/27 07:22:24;;;;;;;;;;;20.70;61.00;;;;;;6247816;28;20383;-50
2022/12/27 07:25:26;;;;;;;;;;;19.80;60.10;;;;;;6248295;28;20385;-51
2022/12/27 07:28:27;;;;;;;;;;;20.20;59.70;;;;;;6247862;28;19921;-52
2022/12/27 07:31:29;;;;;;;;;;;20.00;60.30;;;;;;6247762;28;19924;-52
2022/12/27 07:34:31;;;;;;;;;;;20.20;59.70;;;;;;6247486;28;19927;-52
2022/12/27 07:37:32;;;;;;;;;;;20.50;60.20;;;;;;6247348;28;19921;-52
2022/12/27 07:40:35;;;;;;;;;;;20.40;60.40;;;;;;6246969;28;19974;-51
2022/12/27 07:43:37;;;;;;;;;;;19.90;59.80;;;;;;6247446;28;19921;-54
2022/12/27 07:46:39;;;;;;;;;;;20.50;60.30;;;;;;6247241;28;19928;-52
2022/12/27 07:49:41;;;;;;;;;;;20.30;60.00;;;;;;6247527;28;20373;-53
2022/12/27 07:52:42;;;;;;;;;;;20.60;60.30;;;;;;6247332;28;19921;-52
2022/12/27 07:55:45;;;;;;;;;;;20.10;60.00;;;;;;6246090;28;20397;-52
2022/12/27 07:58:48;;;;;;;;;;;20.70;60.20;;;;;;6247484;28;19921;-51
2022/12/27 08:05:04;;;;;;;;;;;20.40;60.00;;;;;;6246953;28;19925;-50
2022/12/27 08:08:06;;;;;;;;;;;20.20;59.60;;;;;;6247275;28;19921;-51
2022/12/27 08:11:08;;;;;;;;;;;20.90;60.50;;;;;;6247587;28;19921;-53
2022/12/27 08:14:09;;;;;;;;;;;20.20;60.00;;;;;;6246431;28;19921;-53
2022/12/27 08:17:13;;;;;;;;;;;20.90;60.40;;;;;;6247784;28;19952;-52
2022/12/27 08:20:15;;;;;;;;;;;20.10;59.80;;;;;;6246742;28;20377;-50
2022/12/27 08:23:16;;;;;;;;;;;20.60;58.20;;;;;;6246641;28;19925;-52
2022/12/27 08:26:18;;;;;;;;;;;20.30;59.70;;;;;;6247047;28;19921;-51
2022/12/27 08:29:19;;;;;;;;;;;20.10;59.90;;;;;;6247119;28;19921;-53
2022/12/27 08:32:21;;;;;;;;;;;20.20;59.80;;;;;;6246599;28;19921;-54
2022/12/27 08:35:22;;;;;;;;;;;20.40;59.50;;;;;;6246757;28;20304;-52
2022/12/27 08:38:44;;;;;;;;;;;20.50;59.40;;;;;;6259725;28;19921;-54
2022/12/27 08:41:46;;;;;;;;;;;20.70;60.10;;;;;;6248985;28;19928;-49
2022/12/27 08:44:47;;;;;;;;;;;20.50;60.00;;;;;;6250531;28;19925;-53
2022/12/27 08:47:48;;;;;;;;;;;20.70;59.80;;;;;;6250822;28;20242;-51
2022/12/27 08:50:50;;;;;;;;;;;20.20;59.60;;;;;;6250507;28;20392;-53
2022/12/27 08:53:51;;;;;;;;;;;20.20;59.90;;;;;;6250401;28;19921;-52
2022/12/27 08:56:53;;;;;;;;;;;20.30;59.20;;;;;;6250487;28;19921;-52
2022/12/27 08:59:54;;;;;;;;;;;20.90;60.00;;;;;;6250416;28;19937;-53
2022/12/27 09:02:56;;;;;;;;;;;20.30;59.10;;;;;;6250023;28;20012;-54
2022/12/27 09:06:05;;;;;;;;;;;20.60;59.60;;;;;;6250291;28;19921;-52
2022/12/27 09:09:07;;;;;;;;;;;20.70;59.60;;;;;;6250447;28;19920;-55
2022/12/27 09:12:09;;;;;;;;;;;20.40;59.60;;;;;;6250032;28;19956;-55
2022/12/27 09:15:11;;;;;;;;;;;20.30;59.60;;;;;;6250132;28;19944;-54
2022/12/27 09:18:13;;;;;;;;;;;21.10;59.80;;;;;;6250078;28;19967;-53
2022/12/27 09:21:16;;;;;;;;;;;20.80;59.70;;;;;;6248507;28;20320;-52
2022/12/27 09:24:17;;;;;;;;;;;21.20;59.90;;;;;;6250000;28;20040;-52
2022/12/27 09:27:19;;;;;;;;;;;20.60;59.60;;;;;;6249959;28;19925;-52
2022/12/27 09:30:20;;;;;;;;;;;21.20;60.00;;;;;;6250025;28;20449;-50
2022/12/27 09:33:22;;;;;;;;;;;20.70;59.60;;;;;;6249971;28;20285;-49
2022/12/27 09:36:25;;;;;;;;;;;20.60;59.00;;;;;;6249394;28;19971;-50
2022/12/27 09:39:26;;;;;;;;;;;20.20;59.30;;;;;;6249495;28;19921;-51
2022/12/27 09:42:36;;;;;;;;;;;20.80;59.80;;;;;;6249817;28;19921;-53
2022/12/27 09:45:58;;;;;;;;;;;20.30;59.20;;;;;;6248424;28;20342;-50
2022/12/27 09:49:00;;;;;;;;;;;21.10;59.70;;;;;;6249434;28;20058;-54
2022/12/27 09:52:04;;;;;;;;;;;20.70;59.50;;;;;;6249666;28;19921;-50
2022/12/27 09:55:10;;;;;;;;;;;21.00;59.80;;;;;;6249127;28;19921;-52
2022/12/27 09:58:22;;;;;;;;;;;20.80;59.50;;;;;;6249149;28;20305;-53
2022/12/27 10:01:27;;;;;;;;;;;21.10;59.70;;;;;;6249462;28;19921;-53
2022/12/27 10:04:33;;;;;;;;;;;20.80;59.20;;;;;;6249281;28;19925;-52
2022/12/27 10:08:01;;;;;;;;;;;21.20;59.80;;;;;;6248129;28;20395;-55
2022/12/27 10:14:42;;;;;;;;;;;21.20;59.80;;;;;;6247729;28;19921;-52
2022/12/27 10:17:49;;;;;;;;;;;20.40;59.40;;;;;;6248884;28;19921;-51
2022/12/27 10:20:59;;;;;;;;;;;21.10;59.60;;;;;;6248772;28;20035;-53
2022/12/27 10:24:12;;;;;;;;;;;21.20;59.60;;;;;;6248518;28;19921;-49
2022/12/27 10:27:14;;;;;;;;;;;20.90;59.80;;;;;;6248835;28;19944;-52
2022/12/27 10:30:18;;;;;;;;;;;21.20;59.40;;;;;;6247253;28;19960;-50
2022/12/27 10:33:22;;;;;;;;;;;21.10;59.50;;;;;;6230717;28;19920;-50
2022/12/27 10:36:25;;;;;;;;;;;20.50;58.80;;;;;;6248586;28;19952;-51
2022/12/27 10:39:27;;;;;;;;;;;20.90;59.10;;;;;;6247794;28;19925;-50
2022/12/27 10:42:33;;;;;;;;;;;20.90;59.40;;;;;;6248261;28;19928;-51
2022/12/27 10:45:37;;;;;;;;;;;21.20;59.60;;;;;;6248417;28;19921;-51
2022/12/27 10:48:39;;;;;;;;;;;20.80;59.30;;;;;;6248488;28;20304;-53
2022/12/27 10:52:06;;;;;;;;;;;20.90;59.50;;;;;;6246951;28;19986;-49
2022/12/27 10:55:28;;;;;;;;;;;20.40;58.90;;;;;;6248402;28;20010;-50
2022/12/27 10:58:35;;;;;;;;;;;21.00;59.40;;;;;;6248176;28;19937;-52
2022/12/27 11:01:37;;;;;;;;;;;20.60;59.20;;;;;;6246786;28;19928;-50
2022/12/27 11:04:53;;;;;;;;;;;21.20;59.50;;;;;;6247275;28;19921;-51
2022/12/27 11:07:55;;;;;;;;;;;20.50;59.00;;;;;;6248473;28;19921;-51
2022/12/27 11:11:10;;;;;;;;;;;21.30;59.50;;;;;;6248017;28;19928;-52
2022/12/27 11:14:16;;;;;;;;;;;20.70;59.10;;;;;;6247709;28;20002;-51
2022/12/27 11:17:18;;;;;;;;;;;21.20;59.50;;;;;;6247476;28;19928;-52
2022/12/27 11:20:22;;;;;;;;;;;20.90;59.50;;;;;;6247642;28;20399;-52
2022/12/27 11:23:24;;;;;;;;;;;21.10;59.30;;;;;;6246574;28;20031;-52
2022/12/27 11:26:27;;;;;;;;;;;20.60;59.10;;;;;;6247759;28;19921;-50
2022/12/27 11:29:29;;;;;;;;;;;21.00;59.20;;;;;;6247535;28;19921;-53
2022/12/27 11:32:32;;;;;;;;;;;20.80;59.10;;;;;;6247726;28;20270;-52
2022/12/27 11:35:44;;;;;;;;;;;20.80;58.70;;;;;;6247251;28;20424;-50
2022/12/27 11:38:48;;;;;;;;;;;20.80;58.80;;;;;;6247207;28;19921;-51
2022/12/27 11:41:52;;;;;;;;;;;21.00;59.00;;;;;;6246217;28;19924;-47
2022/12/27 11:44:58;;;;;;;;;;;20.60;58.90;;;;;;6247231;28;19952;-51
2022/12/27 11:48:02;;;;;;;;;;;21.50;59.40;;;;;;6247959;28;20376;-50
2022/12/27 11:51:21;;;;;;;;;;;20.60;59.20;;;;;;6246370;28;19935;-49
2022/12/27 11:54:29;;;;;;;;;;;21.00;59.10;;;;;;6246999;28;19921;-48
2022/12/27 11:57:42;;;;;;;;;;;20.60;58.90;;;;;;6247054;28;19921;-51
2022/12/27 12:00:46;;;;;;;;;;;21.50;59.40;;;;;;6246994;28;20377;-50
2022/12/27 12:03:57;;;;;;;;;;;20.60;58.90;;;;;;6245767;28;19947;-49
2022/12/27 12:07:03;;;;;;;;;;;21.40;59.40;;;;;;6247013;28;20381;-51
2022/12/27 12:10:15;;;;;;;;;;;20.60;59.40;;;;;;6247607;28;19925;-50
2022/12/27 12:13:27;;;;;;;;;;;21.20;59.20;;;;;;6247084;28;19952;-50
2022/12/27 12:16:43;;;;;;;;;;;20.90;58.50;;;;;;6248867;28;19932;-51
2022/12/27 12:20:01;;;;;;;;;;;20.80;59.00;;;;;;6251103;28;20032;-48
2022/12/27 12:23:06;;;;;;;;;;;21.20;59.10;;;;;;6250929;28;19928;-49
2022/12/27 12:26:11;;;;;;;;;;;21.20;59.00;;;;;;6251135;28;19936;-47
2022/12/27 12:29:24;;;;;;;;;;;21.00;58.90;;;;;;6250291;28;20366;-53
2022/12/27 12:32:30;;;;;;;;;;;22.00;59.50;;;;;;6250666;28;19921;-50
2022/12/27 12:35:43;;;;;;;;;;;20.90;58.40;;;;;;6250993;28;19928;-49
2022/12/27 12:38:49;;;;;;;;;;;21.10;58.90;;;;;;6250907;28;19967;-48
2022/12/27 12:42:04;;;;;;;;;;;20.90;59.00;;;;;;6250610;28;20083;-53
2022/12/27 12:45:15;;;;;;;;;;;21.70;60.00;;;;;;6251028;28;19929;-52
2022/12/27 12:48:31;;;;;;;;;;;21.10;58.90;;;;;;6250493;28;19959;-50
2022/12/27 12:51:38;;;;;;;;;;;21.30;58.90;;;;;;6250452;28;19971;-50
2022/12/27 12:54:53;;;;;;;;;;;21.20;59.10;;;;;;6250317;28;20327;-51
2022/12/27 12:58:04;;;;;;;;;;;21.70;59.40;;;;;;6251026;28;20277;-54
2022/12/27 13:01:21;;;;;;;;;;;21.20;59.10;;;;;;6250468;28;19921;-51
2022/12/27 13:04:30;;;;;;;;;;;21.80;59.40;;;;;;6250155;28;19921;-54
2022/12/27 13:07:40;;;;;;;;;;;21.10;59.00;;;;;;6250128;28;20395;-54
2022/12/27 13:10:46;;;;;;;;;;;21.70;59.20;;;;;;6249953;28;19921;-53
2022/12/27 13:13:54;;;;;;;;;;;21.00;58.80;;;;;;6250339;28;19921;-52
2022/12/27 13:17:00;;;;;;;;;;;21.40;59.10;;;;;;6250172;28;19984;-53
2022/12/27 13:20:06;;;;;;;;;;;21.10;58.90;;;;;;6250313;28;19921;-49
2022/12/27 13:23:12;;;;;;;;;;;21.40;59.10;;;;;;6250179;28;19928;-54
2022/12/27 13:26:18;;;;;;;;;;;21.20;58.80;;;;;;6249445;28;19921;-51
2022/12/27 13:29:28;;;;;;;;;;;21.60;59.10;;;;;;6249602;28;20281;-53
2022/12/27 13:32:38;;;;;;;;;;;21.10;58.80;;;;;;6248535;28;19921;-52
2022/12/27 13:35:46;;;;;;;;;;;21.20;58.30;;;;;;6249747;28;19975;-51
2022/12/27 13:38:52;;;;;;;;;;;21.40;59.00;;;;;;6249395;28;19921;-52
2022/12/27 13:42:00;;;;;;;;;;;21.50;59.10;;;;;;6249448;28;20361;-52
2022/12/27 13:45:07;;;;;;;;;;;21.00;58.60;;;;;;6248299;28;19921;-52
2022/12/27 13:48:15;;;;;;;;;;;21.80;59.10;;;;;;6248362;28;20388;-52
2022/12/27 13:51:34;;;;;;;;;;;21.30;58.80;;;;;;6248115;28;19920;-50
2022/12/27 13:54:43;;;;;;;;;;;21.50;59.00;;;;;;6249285;28;19928;-53
2022/12/27 13:57:58;;;;;;;;;;;21.40;58.90;;;;;;6249965;28;19990;-52
2022/12/27 14:01:05;;;;;;;;;;;21.50;59.00;;;;;;6249186;28;20360;-54
2022/12/27 14:04:21;;;;;;;;;;;20.90;58.60;;;;;;6249563;28;19927;-51
2022/12/27 14:07:30;;;;;;;;;;;21.60;58.90;;;;;;6248894;28;19945;-53
2022/12/27 14:10:35;;;;;;;;;;;21.40;59.00;;;;;;6249064;28;19921;-48
2022/12/27 14:13:37;;;;;;;;;;;21.70;59.00;;;;;;6248788;28;19928;-53
2022/12/27 14:16:48;;;;;;;;;;;20.90;58.60;;;;;;6249022;28;19925;-52
2022/12/27 14:19:57;;;;;;;;;;;21.00;58.50;;;;;;6247606;28;19925;-55
2022/12/27 14:23:10;;;;;;;;;;;21.40;58.90;;;;;;6248644;28;19924;-51
2022/12/27 14:26:26;;;;;;;;;;;21.60;59.60;;;;;;6248004;28;20312;-52
2022/12/27 14:29:39;;;;;;;;;;;20.90;58.50;;;;;;6247483;28;19963;-54
2022/12/27 14:32:56;;;;;;;;;;;21.80;59.00;;;;;;6248559;28;19959;-53
2022/12/27 14:36:14;;;;;;;;;;;21.30;58.20;;;;;;6248533;28;19971;-54
2022/12/27 14:39:27;;;;;;;;;;;21.90;59.10;;;;;;6247514;28;20011;-51
2022/12/27 14:42:52;;;;;;;;;;;21.10;58.70;;;;;;6248592;28;19928;-54
2022/12/27 14:46:03;;;;;;;;;;;21.50;58.90;;;;;;6248273;28;19921;-52
2022/12/27 14:49:18;;;;;;;;;;;21.50;58.90;;;;;;6248891;28;19925;-53
2022/12/27 14:52:33;;;;;;;;;;;21.70;59.00;;;;;;6248063;28;19956;-53
2022/12/27 14:55:41;;;;;;;;;;;21.10;58.80;;;;;;6247999;28;19920;-53
2022/12/27 14:58:48;;;;;;;;;;;21.90;59.10;;;;;;6248227;28;19924;-54
2022/12/27 15:01:54;;;;;;;;;;;21.10;58.60;;;;;;6247947;28;20392;-52
2022/12/27 15:05:03;;;;;;;;;;;22.20;59.30;;;;;;6248505;28;19928;-53
2022/12/27 15:08:24;;;;;;;;;;;21.60;58.80;;;;;;6248114;28;19921;-54
2022/12/27 15:11:33;;;;;;;;;;;22.00;59.10;;;;;;6247768;28;19948;-53
2022/12/27 15:14:42;;;;;;;;;;;21.30;58.80;;;;;;6247953;28;19971;-51
2022/12/27 15:17:51;;;;;;;;;;;21.60;58.70;;;;;;6247761;28;19921;-53
2022/12/27 15:21:07;;;;;;;;;;;21.50;59.00;;;;;;6246449;28;20011;-52
2022/12/27 15:24:18;;;;;;;;;;;21.80;59.20;;;;;;6246581;28;19928;-53
2022/12/27 15:27:25;;;;;;;;;;;21.20;58.80;;;;;;6247848;28;19925;-52
2022/12/27 15:30:34;;;;;;;;;;;21.80;59.20;;;;;;6247524;28;20288;-54
2022/12/27 15:33:40;;;;;;;;;;;21.20;58.40;;;;;;6247332;28;19932;-54
2022/12/27 15:36:42;;;;;;;;;;;21.90;59.20;;;;;;6247481;28;19948;-54
2022/12/27 15:39:47;;;;;;;;;;;21.60;59.10;;;;;;6247394;28;20362;-54
2022/12/27 15:42:53;;;;;;;;;;;21.70;59.10;;;;;;6246348;28;19921;-54
2022/12/27 15:46:01;;;;;;;;;;;21.10;58.80;;;;;;6247322;28;19921;-53
2022/12/27 15:49:09;;;;;;;;;;;21.50;59.10;;;;;;6247416;28;20319;-53
2022/12/27 15:52:14;;;;;;;;;;;21.20;58.80;;;;;;6252071;28;19960;-55
2022/12/27 15:55:21;;;;;;;;;;;21.30;59.00;;;;;;6251813;28;19921;-54
2022/12/27 15:58:23;;;;;;;;;;;21.40;58.90;;;;;;6251522;28;20426;-54
2022/12/27 16:01:26;;;;;;;;;;;21.80;59.20;;;;;;6251384;28;19921;-53
2022/12/27 16:04:41;;;;;;;;;;;21.50;59.00;;;;;;6251619;28;19921;-53
2022/12/27 16:07:44;;;;;;;;;;;21.90;59.20;;;;;;6251457;28;19921;-55
2022/12/27 16:10:47;;;;;;;;;;;21.30;58.90;;;;;;6251538;28;19925;-54
2022/12/27 16:13:50;;;;;;;;;;;21.80;59.30;;;;;;6251393;28;20369;-52
2022/12/27 16:16:52;;;;;;;;;;;21.10;58.70;;;;;;6251545;28;19986;-54
2022/12/27 16:19:59;;;;;;;;;;;21.80;59.10;;;;;;6251300;28;19921;-53
2022/12/27 16:23:02;;;;;;;;;;;21.40;58.90;;;;;;6250077;28;20023;-53
2022/12/27 16:26:04;;;;;;;;;;;22.00;59.40;;;;;;6250068;28;19967;-54
2022/12/27 16:29:11;;;;;;;;;;;21.20;59.10;;;;;;6249900;28;20369;-54
2022/12/27 16:32:15;;;;;;;;;;;21.90;59.30;;;;;;6250976;28;20376;-53
2022/12/27 16:35:17;;;;;;;;;;;21.30;58.50;;;;;;6250832;28;19928;-54
2022/12/27 16:38:20;;;;;;;;;;;21.50;59.30;;;;;;6250969;28;19968;-55
2022/12/27 16:41:35;;;;;;;;;;;21.30;61.80;;;;;;6249717;28;20348;-54
2022/12/27 16:44:45;;;;;;;;;;;21.50;61.50;;;;;;6250750;28;19921;-55
2022/12/27 16:47:56;;;;;;;;;;;21.20;60.90;;;;;;6250793;28;20353;-54
2022/12/27 16:51:05;;;;;;;;;;;21.80;61.60;;;;;;6250661;28;19978;-55
2022/12/27 16:54:15;;;;;;;;;;;21.00;60.80;;;;;;6250888;28;19974;-54
2022/12/27 16:57:21;;;;;;;;;;;21.70;61.30;;;;;;6250597;28;19921;-55
2022/12/27 17:00:35;;;;;;;;;;;20.90;60.80;;;;;;6250478;28;19960;-53
2022/12/27 17:03:42;;;;;;;;;;;21.60;61.20;;;;;;6249099;28;20012;-54
2022/12/27 17:06:53;;;;;;;;;;;21.20;61.00;;;;;;6250474;28;19921;-52
2022/12/27 17:09:55;;;;;;;;;;;21.50;61.20;;;;;;6250342;28;19966;-54
2022/12/27 17:12:58;;;;;;;;;;;21.00;61.00;;;;;;6250768;28;20374;-53
2022/12/27 17:16:03;;;;;;;;;;;21.70;61.60;;;;;;6250308;28;20032;-54
2022/12/27 17:19:15;;;;;;;;;;;21.20;61.00;;;;;;6250262;28;19956;-53
2022/12/27 17:22:17;;;;;;;;;;;21.20;57.60;;;;;;6250556;28;19921;-53
2022/12/27 17:25:21;;;;;;;;;;;20.80;60.90;;;;;;6250281;28;19921;-55
2022/12/27 17:28:25;;;;;;;;;;;21.70;61.50;;;;;;6250048;28;19921;-53
2022/12/27 17:31:32;;;;;;;;;;;20.80;61.10;;;;;;6249937;28;19921;-54
2022/12/27 17:34:37;;;;;;;;;;;21.00;60.50;;;;;;6250106;28;19966;-53
2022/12/27 17:37:41;;;;;;;;;;;21.10;61.10;;;;;;6249659;28;20293;-55
2022/12/27 17:40:47;;;;;;;;;;;21.20;61.30;;;;;;6249743;28;19956;-54
2022/12/27 17:47:15;;;;;;;;;;;20.90;61.00;;;;;;6249695;28;19921;-55
2022/12/27 17:50:19;;;;;;;;;;;22.00;61.40;;;;;;6249553;28;20293;-55
2022/12/27 17:59:58;;;;;;;;;;;20.90;60.60;;;;;;6234033;28;19928;-52
2022/12/27 18:03:01;;;;;;;;;;;21.30;60.00;;;;;;6249392;28;19960;-54
2022/12/27 18:06:03;;;;;;;;;;;20.80;61.00;;;;;;6249315;28;19921;-56
2022/12/27 18:09:04;;;;;;;;;;;21.50;61.50;;;;;;6249474;28;20369;-53
2022/12/27 18:12:09;;;;;;;;;;;21.20;61.30;;;;;;6249083;28;19928;-51
2022/12/27 18:15:13;;;;;;;;;;;21.50;61.40;;;;;;6248833;28;19986;-54
2022/12/27 18:18:16;;;;;;;;;;;21.10;61.30;;;;;;6249316;28;20361;-53
2022/12/27 18:21:22;;;;;;;;;;;21.30;61.40;;;;;;6249112;28;19920;-50
2022/12/27 18:24:24;;;;;;;;;;;21.20;61.00;;;;;;6247826;28;19921;-53
2022/12/27 18:27:26;;;;;;;;;;;21.60;61.50;;;;;;6249283;28;19921;-54
2022/12/27 18:30:31;;;;;;;;;;;20.50;60.70;;;;;;6249161;28;19921;-53
2022/12/27 18:33:33;;;;;;;;;;;21.00;60.80;;;;;;6248789;28;19921;-54
2022/12/27 18:36:36;;;;;;;;;;;21.10;61.40;;;;;;6249043;28;19921;-52
2022/12/27 18:39:39;;;;;;;;;;;21.20;61.10;;;;;;6248859;28;19974;-54
2022/12/27 18:42:43;;;;;;;;;;;20.90;61.20;;;;;;6247529;28;20377;-52
2022/12/27 18:45:45;;;;;;;;;;;21.40;61.60;;;;;;6248512;28;19975;-51
2022/12/27 18:48:47;;;;;;;;;;;21.10;61.40;;;;;;6248897;28;19966;-53
2022/12/27 18:51:49;;;;;;;;;;;21.40;61.80;;;;;;6248552;28;20035;-53
2022/12/27 18:54:51;;;;;;;;;;;21.00;61.40;;;;;;6248358;28;19932;-53
2022/12/27 18:57:59;;;;;;;;;;;21.10;61.40;;;;;;6248465;28;20027;-54
2022/12/27 19:01:04;;;;;;;;;;;21.00;61.30;;;;;;6247277;28;19925;-53
2022/12/27 19:04:20;;;;;;;;;;;21.30;61.40;;;;;;6248197;28;19921;-53
2022/12/27 19:07:21;;;;;;;;;;;20.60;61.00;;;;;;6247228;28;19960;-52
2022/12/27 19:10:24;;;;;;;;;;;21.30;61.70;;;;;;6248212;28;20348;-54
2022/12/27 19:13:27;;;;;;;;;;;20.70;61.20;;;;;;6248093;28;20003;-54
2022/12/27 19:16:30;;;;;;;;;;;20.70;61.30;;;;;;6248266;28;19967;-53
2022/12/27 19:19:31;;;;;;;;;;;20.60;61.20;;;;;;6248435;28;19921;-53
2022/12/27 19:22:35;;;;;;;;;;;21.00;61.30;;;;;;6247804;28;20008;-53
2022/12/27 19:25:37;;;;;;;;;;;21.00;61.60;;;;;;6247784;28;19964;-52
2022/12/27 19:28:38;;;;;;;;;;;20.90;61.60;;;;;;6247693;28;19921;-54
2022/12/27 19:31:41;;;;;;;;;;;20.80;61.50;;;;;;6247658;28;20408;-54
2022/12/27 19:34:45;;;;;;;;;;;20.80;60.70;;;;;;6247861;28;20377;-56
2022/12/27 19:37:46;;;;;;;;;;;20.90;61.70;;;;;;6247610;28;19974;-53
2022/12/27 19:40:48;;;;;;;;;;;20.70;61.50;;;;;;6247565;28;19928;-53
2022/12/27 19:43:50;;;;;;;;;;;20.90;61.40;;;;;;6247806;28;19975;-54
2022/12/27 19:46:52;;;;;;;;;;;21.40;61.90;;;;;;6247606;28;20030;-54
2022/12/27 19:49:53;;;;;;;;;;;21.10;61.50;;;;;;6247381;28;19971;-53
2022/12/27 19:52:54;;;;;;;;;;;20.50;61.30;;;;;;6247335;28;20394;-53
2022/12/27 19:55:56;;;;;;;;;;;20.90;61.50;;;;;;6247466;28;19921;-54